createdAt,value
2022-12-08T00:00:33.741Z,2.92
2022-12-08T00:03:17.278Z,2.87
2022-12-08T00:06:15.666Z,2.84
2022-12-08T00:09:16.677Z,2.80
2022-12-08T00:12:00.122Z,2.85
2022-12-08T00:14:40.901Z,2.81
2022-12-08T00:17:21.960Z,2.80
2022-12-08T00:20:01.784Z,2.78
2022-12-08T00:22:41.554Z,2.84
2022-12-08T00:25:22.198Z,2.83
2022-12-08T00:28:02.854Z,2.80
2022-12-08T00:30:42.602Z,2.84
2022-12-08T00:33:24.693Z,2.84
2022-12-08T00:36:07.824Z,2.85
2022-12-08T00:38:48.234Z,2.84
2022-12-08T00:41:50.056Z,2.84
2022-12-08T00:44:30.475Z,2.85
2022-12-08T00:47:12.725Z,2.80
2022-12-08T00:49:53.257Z,2.81
2022-12-08T00:52:33.135Z,2.82
2022-12-08T00:55:15.014Z,2.77
2022-12-08T00:57:55.917Z,2.78
2022-12-08T01:00:35.702Z,2.73
2022-12-08T01:03:15.526Z,2.74
2022-12-08T01:05:55.490Z,2.73
2022-12-08T01:08:38.839Z,2.76
2022-12-08T01:11:21.731Z,2.76
2022-12-08T01:14:02.874Z,2.70
2022-12-08T01:16:44.308Z,2.68
2022-12-08T01:19:25.658Z,2.65
2022-12-08T01:22:09.263Z,2.65
2022-12-08T01:24:49.966Z,2.58
2022-12-08T01:27:28.848Z,2.58
2022-12-08T01:30:08.852Z,2.57
2022-12-08T01:32:49.386Z,2.52
2022-12-08T01:35:29.202Z,2.52
2022-12-08T01:38:09.000Z,2.47
2022-12-08T01:40:50.449Z,2.47
2022-12-08T01:43:43.765Z,2.49
2022-12-08T01:46:24.672Z,2.46
2022-12-08T01:49:06.450Z,2.42
2022-12-08T01:51:48.114Z,2.38
2022-12-08T01:54:32.396Z,2.34
2022-12-08T01:57:15.665Z,2.33
2022-12-08T01:59:58.145Z,2.28
2022-12-08T02:02:43.231Z,2.23
2022-12-08T02:05:24.512Z,2.23
2022-12-08T02:08:06.723Z,2.17
2022-12-08T02:10:50.065Z,2.19
2022-12-08T02:13:32.608Z,2.16
2022-12-08T02:16:13.888Z,2.15
2022-12-08T02:19:22.533Z,2.12
2022-12-08T02:21:59.174Z,2.11
2022-12-08T02:24:39.797Z,2.09
2022-12-08T02:27:23.968Z,2.11
2022-12-08T02:30:08.007Z,2.08
2022-12-08T02:33:02.864Z,2.07
2022-12-08T02:35:45.699Z,2.05
2022-12-08T02:38:28.498Z,2.04
2022-12-08T02:41:13.134Z,2.03
2022-12-08T02:43:58.385Z,2.05
2022-12-08T02:46:40.771Z,2.05
2022-12-08T02:49:20.900Z,2.05
2022-12-08T02:52:09.391Z,2.05
2022-12-08T02:54:50.774Z,2.05
2022-12-08T02:57:33.069Z,2.05
2022-12-08T03:00:16.371Z,2.08
2022-12-08T03:03:00.284Z,2.12
2022-12-08T03:05:45.369Z,2.12
2022-12-08T03:08:28.909Z,2.14
2022-12-08T03:11:10.562Z,2.15
2022-12-08T03:13:52.854Z,2.18
2022-12-08T03:16:34.525Z,2.20
2022-12-08T03:19:17.380Z,2.23
2022-12-08T03:22:02.808Z,2.24
2022-12-08T03:24:44.468Z,2.24
2022-12-08T03:27:24.937Z,2.26
2022-12-08T03:30:07.185Z,2.26
2022-12-08T03:32:48.114Z,2.28
2022-12-08T03:35:29.568Z,2.27
2022-12-08T03:38:12.117Z,2.27
2022-12-08T03:41:07.106Z,2.26
2022-12-08T03:43:48.318Z,2.26
2022-12-08T03:49:08.566Z,2.25
2022-12-08T03:51:49.988Z,2.25
2022-12-08T03:54:27.965Z,2.27
2022-12-08T03:57:07.996Z,2.28
2022-12-08T03:59:49.801Z,2.28
2022-12-08T04:02:32.998Z,2.29
2022-12-08T04:05:13.802Z,2.32
2022-12-08T04:07:53.607Z,2.33
2022-12-08T04:10:33.491Z,2.37
2022-12-08T04:13:13.234Z,2.33
2022-12-08T04:15:53.112Z,2.35
2022-12-08T04:18:34.969Z,2.36
2022-12-08T04:21:17.991Z,2.35
2022-12-08T04:24:01.587Z,2.35
2022-12-08T04:26:41.866Z,2.38
2022-12-08T04:29:21.861Z,2.38
2022-12-08T04:32:05.439Z,2.39
2022-12-08T04:34:46.087Z,2.35
2022-12-08T04:37:25.873Z,2.34
2022-12-08T04:40:06.734Z,2.34
2022-12-08T04:42:47.398Z,2.38
2022-12-08T04:45:28.516Z,2.39
2022-12-08T04:48:08.555Z,2.39
2022-12-08T04:50:49.791Z,2.36
2022-12-08T04:53:29.583Z,2.36
2022-12-08T04:56:14.087Z,2.35
2022-12-08T04:58:54.186Z,2.32
2022-12-08T05:01:37.478Z,2.31
2022-12-08T05:04:18.374Z,2.33
2022-12-08T05:07:00.178Z,2.29
2022-12-08T05:09:41.213Z,2.29
2022-12-08T05:12:23.032Z,2.32
2022-12-08T05:15:04.278Z,2.32
2022-12-08T05:17:45.411Z,2.33
2022-12-08T05:20:23.285Z,2.30
2022-12-08T05:23:05.454Z,2.31
2022-12-08T05:25:46.505Z,2.32
2022-12-08T05:28:44.291Z,2.33
2022-12-08T05:31:25.580Z,2.38
2022-12-08T05:34:08.628Z,2.41
2022-12-08T05:36:49.669Z,2.40
2022-12-08T05:39:31.903Z,2.39
2022-12-08T05:42:14.497Z,2.43
2022-12-08T05:44:55.469Z,2.46
2022-12-08T05:47:36.297Z,2.47
2022-12-08T05:50:16.696Z,2.49
2022-12-08T05:52:58.557Z,2.50
2022-12-08T05:55:39.574Z,2.48
2022-12-08T05:58:19.961Z,2.49
2022-12-08T06:00:58.847Z,2.52
2022-12-08T06:03:38.924Z,2.49
2022-12-08T06:06:18.907Z,2.52
2022-12-08T06:09:02.489Z,2.51
2022-12-08T06:11:43.242Z,2.51
2022-12-08T06:14:24.522Z,2.53
2022-12-08T06:17:04.371Z,2.54
2022-12-08T06:19:44.156Z,2.55
2022-12-08T06:22:23.953Z,2.54
2022-12-08T06:25:08.492Z,2.54
2022-12-08T06:27:49.969Z,2.53
2022-12-08T06:30:31.818Z,2.47
2022-12-08T06:33:14.790Z,2.43
2022-12-08T06:35:57.813Z,2.47
2022-12-08T06:38:43.137Z,2.49
2022-12-08T06:41:25.457Z,2.49
2022-12-08T06:44:04.539Z,2.44
2022-12-08T06:46:44.645Z,2.48
2022-12-08T06:49:24.459Z,2.49
2022-12-08T06:52:04.366Z,2.48
2022-12-08T06:54:45.662Z,2.45
2022-12-08T06:57:25.710Z,2.41
2022-12-08T07:00:07.966Z,2.38
2022-12-08T07:02:50.364Z,2.41
2022-12-08T07:05:31.293Z,2.42
2022-12-08T07:08:11.204Z,2.41
2022-12-08T07:10:54.502Z,2.43
2022-12-08T07:13:36.643Z,2.39
2022-12-08T07:16:18.056Z,2.40
2022-12-08T07:18:58.375Z,2.35
2022-12-08T07:21:40.157Z,2.38
2022-12-08T07:24:21.408Z,2.37
2022-12-08T07:27:02.927Z,2.34
2022-12-08T07:29:43.969Z,2.37
2022-12-08T07:32:25.803Z,2.37
2022-12-08T07:35:08.739Z,2.35
2022-12-08T07:37:49.817Z,2.36
2022-12-08T07:40:30.641Z,2.35
2022-12-08T07:43:11.028Z,2.41
2022-12-08T07:45:51.144Z,2.40
2022-12-08T07:48:32.240Z,2.40
2022-12-08T07:51:12.743Z,2.46
2022-12-08T07:53:54.888Z,2.48
2022-12-08T07:56:37.467Z,2.49
2022-12-08T07:59:17.852Z,2.49
2022-12-08T08:02:22.376Z,2.50
2022-12-08T08:04:59.884Z,2.49
2022-12-08T08:07:39.771Z,2.47
2022-12-08T08:10:20.201Z,2.51
2022-12-08T08:13:01.065Z,2.51
2022-12-08T08:15:42.376Z,2.53
2022-12-08T08:18:23.694Z,2.55
2022-12-08T08:21:22.250Z,2.59
2022-12-08T08:24:04.191Z,2.61
2022-12-08T08:26:42.014Z,2.59
2022-12-08T08:29:22.194Z,2.63
2022-12-08T08:32:01.935Z,2.61
2022-12-08T08:34:39.998Z,2.62
2022-12-08T08:37:20.105Z,2.66
2022-12-08T08:40:01.560Z,2.67
2022-12-08T08:42:44.802Z,2.72
2022-12-08T08:45:27.855Z,2.77
2022-12-08T08:48:08.819Z,2.76
2022-12-08T08:50:48.657Z,2.79
2022-12-08T08:53:30.006Z,2.76
2022-12-08T08:56:11.032Z,2.79
2022-12-08T08:58:52.089Z,2.82
2022-12-08T09:01:32.991Z,2.88
2022-12-08T09:04:14.047Z,2.85
2022-12-08T09:06:54.807Z,2.91
2022-12-08T09:09:35.312Z,2.96
2022-12-08T09:12:16.659Z,2.95
2022-12-08T09:15:17.639Z,2.99
2022-12-08T09:17:59.695Z,3.03
2022-12-08T09:20:40.242Z,3.08
2022-12-08T09:23:21.525Z,3.10
2022-12-08T09:26:01.344Z,3.12
2022-12-08T09:28:46.160Z,3.18
2022-12-08T09:31:27.540Z,3.16
2022-12-08T09:34:08.744Z,3.17
2022-12-08T09:36:49.623Z,3.21
2022-12-08T09:39:31.043Z,3.22
2022-12-08T09:42:13.381Z,3.22
2022-12-08T09:44:55.191Z,3.17
2022-12-08T09:47:38.799Z,3.23
2022-12-08T09:50:23.645Z,3.25
2022-12-08T09:53:07.188Z,3.27
2022-12-08T09:55:49.105Z,3.20
2022-12-08T09:58:30.466Z,3.24
2022-12-08T10:01:12.871Z,3.22
2022-12-08T10:03:54.701Z,3.24
2022-12-08T10:06:37.743Z,3.27
2022-12-08T10:09:23.140Z,3.30
2022-12-08T10:12:06.546Z,3.28
2022-12-08T10:14:48.139Z,3.36
2022-12-08T10:17:27.427Z,3.34
2022-12-08T10:20:12.072Z,3.40
2022-12-08T10:22:54.290Z,3.41
2022-12-08T10:25:38.834Z,3.48
2022-12-08T10:28:21.320Z,3.56
2022-12-08T10:31:23.727Z,3.59
2022-12-08T10:34:11.378Z,3.64
2022-12-08T10:36:53.644Z,3.68
2022-12-08T10:39:34.904Z,3.71
2022-12-08T10:42:19.768Z,3.73
2022-12-08T10:45:02.087Z,3.77
2022-12-08T10:47:45.346Z,3.76
2022-12-08T10:50:30.825Z,3.79
2022-12-08T10:53:15.206Z,3.69
2022-12-08T10:56:08.688Z,3.77
2022-12-08T10:58:49.271Z,3.77
2022-12-08T11:01:33.326Z,3.81
2022-12-08T11:04:14.446Z,3.86
2022-12-08T11:06:55.183Z,3.87
2022-12-08T11:09:38.865Z,3.88
2022-12-08T11:12:19.639Z,3.82
2022-12-08T11:15:03.383Z,3.84
2022-12-08T11:17:45.715Z,3.88
2022-12-08T11:20:27.872Z,3.92
2022-12-08T11:23:18.456Z,3.96
2022-12-08T11:26:03.130Z,3.88
2022-12-08T11:28:43.879Z,3.92
2022-12-08T11:31:26.271Z,3.96
2022-12-08T11:34:06.914Z,3.92
2022-12-08T11:36:48.108Z,3.99
2022-12-08T11:39:28.214Z,4.00
2022-12-08T11:42:12.823Z,4.05
2022-12-08T11:44:54.447Z,4.06
2022-12-08T11:47:37.557Z,4.10
2022-12-08T11:50:21.005Z,4.10
2022-12-08T11:52:59.375Z,4.16
2022-12-08T11:55:42.664Z,4.16
2022-12-08T11:58:27.429Z,4.10
2022-12-08T12:01:09.618Z,4.20
2022-12-08T12:03:53.704Z,4.14
2022-12-08T12:06:54.130Z,4.12
2022-12-08T12:09:40.045Z,4.08
2022-12-08T12:12:25.261Z,4.10
2022-12-08T12:15:15.102Z,4.06
2022-12-08T12:17:56.027Z,4.05
2022-12-08T12:20:36.046Z,4.04
2022-12-08T12:23:17.755Z,4.04
2022-12-08T12:25:59.162Z,4.03
2022-12-08T12:28:42.900Z,4.00
2022-12-08T12:31:26.921Z,3.96
2022-12-08T12:34:08.493Z,3.99
2022-12-08T12:36:53.437Z,3.98
2022-12-08T12:39:35.632Z,4.00
2022-12-08T12:42:29.824Z,3.97
2022-12-08T12:45:25.275Z,3.95
2022-12-08T12:48:20.942Z,3.98
2022-12-08T12:51:02.059Z,4.03
2022-12-08T12:53:54.088Z,3.95
2022-12-08T12:56:57.356Z,3.90
2022-12-08T12:59:45.501Z,3.84
2022-12-08T13:02:28.508Z,3.92
2022-12-08T13:05:10.374Z,3.94
2022-12-08T13:07:50.235Z,3.97
2022-12-08T13:10:31.217Z,3.92
2022-12-08T13:13:18.233Z,3.84
2022-12-08T13:16:12.720Z,3.89
2022-12-08T13:18:58.774Z,3.83
2022-12-08T13:21:40.954Z,3.91
2022-12-08T13:24:29.724Z,3.91
2022-12-08T13:27:30.341Z,3.84
2022-12-08T13:30:24.956Z,3.89
2022-12-08T13:33:17.651Z,3.91
2022-12-08T13:36:04.460Z,3.87
2022-12-08T13:38:45.058Z,3.86
2022-12-08T13:41:29.696Z,3.90
2022-12-08T13:45:18.151Z,3.83
2022-12-08T13:47:33.418Z,3.87
2022-12-08T13:51:24.027Z,3.86
2022-12-08T13:59:28.050Z,3.80
2022-12-08T14:02:15.981Z,3.80
2022-12-08T14:07:57.770Z,3.72
2022-12-08T14:10:41.166Z,3.76
2022-12-08T14:13:22.111Z,3.78
2022-12-08T14:16:03.056Z,3.74
2022-12-08T14:18:43.285Z,3.73
2022-12-08T14:21:23.346Z,3.68
2022-12-08T14:24:06.674Z,3.67
2022-12-08T14:26:48.243Z,3.62
2022-12-08T14:29:47.732Z,3.51
2022-12-08T14:32:28.995Z,3.50
2022-12-08T14:35:18.914Z,3.43
2022-12-08T14:38:01.379Z,3.39
2022-12-08T14:40:42.031Z,3.36
2022-12-08T14:43:25.901Z,3.31
2022-12-08T14:46:13.842Z,3.24
2022-12-08T14:48:56.532Z,3.21
2022-12-08T14:51:36.993Z,3.18
2022-12-08T14:54:16.828Z,3.14
2022-12-08T14:57:01.233Z,3.08
2022-12-08T14:59:41.219Z,3.02
2022-12-08T15:02:26.554Z,2.96
2022-12-08T15:05:11.974Z,2.91
2022-12-08T15:07:55.226Z,2.85
2022-12-08T15:10:39.657Z,2.80
2022-12-08T15:13:29.863Z,2.73
2022-12-08T15:16:22.141Z,2.67
2022-12-08T15:19:05.206Z,2.61
2022-12-08T15:21:46.332Z,2.54
2022-12-08T15:24:26.192Z,2.50
2022-12-08T15:27:07.274Z,2.42
2022-12-08T15:29:47.206Z,2.36
2022-12-08T15:32:28.500Z,2.29
2022-12-08T15:35:09.101Z,2.24
2022-12-08T15:37:47.750Z,2.16
2022-12-08T15:40:28.179Z,2.11
2022-12-08T15:43:10.774Z,2.06
2022-12-08T15:46:02.512Z,2.02
2022-12-08T15:48:43.367Z,1.97
2022-12-08T15:51:23.151Z,1.92
2022-12-08T15:54:03.255Z,1.91
2022-12-08T15:57:10.505Z,1.88
2022-12-08T15:59:46.615Z,1.84
2022-12-08T16:02:49.186Z,1.80
2022-12-08T16:05:44.494Z,1.75
2022-12-08T16:08:51.800Z,1.72
2022-12-08T16:12:06.468Z,1.65
2022-12-08T16:17:49.155Z,1.49
2022-12-08T16:21:05.222Z,1.45
2022-12-08T16:23:42.863Z,1.33
2022-12-08T16:29:27.650Z,1.23
2022-12-08T16:32:08.798Z,1.16
2022-12-08T16:34:50.272Z,1.08
2022-12-08T16:37:33.447Z,1.03
2022-12-08T16:40:14.879Z,0.96
2022-12-08T16:42:55.952Z,0.88
2022-12-08T16:45:44.622Z,0.82
2022-12-08T16:48:25.176Z,0.76
2022-12-08T16:51:10.237Z,0.72
2022-12-08T16:53:51.175Z,0.66
2022-12-08T16:56:32.952Z,0.59
2022-12-08T16:59:15.913Z,0.55
2022-12-08T17:01:56.991Z,0.51
2022-12-08T17:04:36.776Z,0.49
2022-12-08T17:07:16.907Z,0.44
2022-12-08T17:09:58.195Z,0.40
2022-12-08T17:12:39.443Z,0.37
2022-12-08T17:15:21.476Z,0.31
2022-12-08T17:18:02.286Z,0.28
2022-12-08T17:20:45.563Z,0.24
2022-12-08T17:23:26.793Z,0.20
2022-12-08T17:26:08.229Z,0.19
2022-12-08T17:29:00.428Z,0.15
2022-12-08T17:31:42.359Z,0.17
2022-12-08T17:34:23.550Z,0.18
2022-12-08T17:37:04.797Z,0.19
2022-12-08T17:39:44.714Z,0.20
2022-12-08T17:42:27.043Z,0.21
2022-12-08T17:45:08.647Z,0.21
2022-12-08T17:47:48.902Z,0.21
2022-12-08T17:50:30.449Z,0.19
2022-12-08T17:53:11.935Z,0.16
2022-12-08T17:55:54.193Z,0.15
2022-12-08T17:58:34.535Z,0.14
2022-12-08T18:01:16.375Z,0.13
2022-12-08T18:03:58.627Z,0.12
2022-12-08T18:06:40.717Z,0.11
2022-12-08T18:09:23.825Z,0.10
2022-12-08T18:12:04.879Z,0.09
2022-12-08T18:14:46.398Z,0.09
2022-12-08T18:17:27.522Z,0.07
2022-12-08T18:20:08.275Z,0.09
2022-12-08T18:22:48.743Z,0.12
2022-12-08T18:25:28.530Z,0.13
2022-12-08T18:28:09.878Z,0.15
2022-12-08T18:30:49.892Z,0.16
2022-12-08T18:33:31.179Z,0.19
2022-12-08T18:36:12.024Z,0.19
2022-12-08T18:38:52.647Z,0.20
2022-12-08T18:41:33.794Z,0.21
2022-12-08T18:44:13.584Z,0.25
2022-12-08T18:46:53.394Z,0.29
2022-12-08T18:49:33.191Z,0.29
2022-12-08T18:52:13.083Z,0.32
2022-12-08T18:55:10.076Z,0.33
2022-12-08T18:57:50.253Z,0.34
2022-12-08T19:00:30.044Z,0.34
2022-12-08T19:03:10.113Z,0.34
2022-12-08T19:05:51.237Z,0.36
2022-12-08T19:08:31.658Z,0.34
2022-12-08T19:11:19.283Z,0.34
2022-12-08T19:14:00.278Z,0.33
2022-12-08T19:16:40.102Z,0.34
2022-12-08T19:19:19.924Z,0.37
2022-12-08T19:21:57.972Z,0.34
2022-12-08T19:24:37.929Z,0.35
2022-12-08T19:27:19.902Z,0.33
2022-12-08T19:30:00.744Z,0.33
2022-12-08T19:32:43.599Z,0.33
2022-12-08T19:35:25.601Z,0.31
2022-12-08T19:38:06.679Z,0.32
2022-12-08T19:41:05.651Z,0.30
2022-12-08T19:44:04.788Z,0.29
2022-12-08T19:46:46.223Z,0.27
2022-12-08T19:49:27.462Z,0.28
2022-12-08T19:52:07.507Z,0.25
2022-12-08T19:54:48.595Z,0.23
2022-12-08T19:57:28.384Z,0.20
2022-12-08T20:00:09.547Z,0.17
2022-12-08T20:02:49.798Z,0.14
2022-12-08T20:05:33.369Z,0.12
2022-12-08T20:08:14.174Z,0.09
2022-12-08T20:10:58.909Z,0.08
2022-12-08T20:13:45.404Z,0.05
2022-12-08T20:16:28.322Z,0.02
2022-12-08T20:19:07.477Z,-0.03
2022-12-08T20:21:48.361Z,-0.06
2022-12-08T20:24:31.158Z,-0.11
2022-12-08T20:27:11.982Z,-0.16
2022-12-08T20:29:55.449Z,-0.21
2022-12-08T20:32:36.679Z,-0.25
2022-12-08T20:35:18.012Z,-0.31
2022-12-08T20:37:59.294Z,-0.36
2022-12-08T20:40:43.987Z,-0.42
2022-12-08T20:43:25.137Z,-0.46
2022-12-08T20:46:07.862Z,-0.51
2022-12-08T20:48:48.132Z,-0.56
2022-12-08T20:51:31.977Z,-0.62
2022-12-08T20:54:12.490Z,-0.68
2022-12-08T20:56:53.917Z,-0.73
2022-12-08T20:59:35.146Z,-0.78
2022-12-08T21:02:15.072Z,-0.80
2022-12-08T21:04:56.723Z,-0.84
2022-12-08T21:07:38.291Z,-0.89
2022-12-08T21:10:19.424Z,-0.95
2022-12-08T21:13:01.787Z,-0.98
2022-12-08T21:15:42.247Z,-1.03
2022-12-08T21:18:21.530Z,-1.07
2022-12-08T21:21:04.188Z,-1.12
2022-12-08T21:23:46.689Z,-1.15
2022-12-08T21:26:27.782Z,-1.15
2022-12-08T21:29:09.702Z,-1.19
2022-12-08T21:31:48.712Z,-1.20
2022-12-08T21:34:31.469Z,-1.26
2022-12-08T21:38:41.525Z,-1.18
2022-12-08T21:41:38.095Z,-1.36
2022-12-08T21:44:19.451Z,-1.41
2022-12-08T21:47:01.763Z,-1.44
2022-12-08T21:49:41.474Z,-1.47
2022-12-08T21:52:22.478Z,-1.50
2022-12-08T21:55:02.473Z,-1.53
2022-12-08T21:57:42.150Z,-1.55
2022-12-08T22:00:23.442Z,-1.58
2022-12-08T22:03:03.553Z,-1.64
2022-12-08T22:05:41.843Z,-1.63
2022-12-08T22:08:21.280Z,-1.63
2022-12-08T22:11:14.892Z,-1.65
2022-12-08T22:13:54.190Z,-1.64
2022-12-08T22:16:34.441Z,-1.65
2022-12-08T22:19:13.921Z,-1.67
2022-12-08T22:21:54.767Z,-1.68
2022-12-08T22:24:35.172Z,-1.71
2022-12-08T22:27:15.031Z,-1.72
2022-12-08T22:29:55.233Z,-1.74
2022-12-08T22:32:36.520Z,-1.75
2022-12-08T22:35:14.979Z,-1.81
2022-12-08T22:37:57.893Z,-1.83
2022-12-08T22:40:42.339Z,-1.84
2022-12-08T22:43:22.326Z,-1.85
2022-12-08T22:46:10.023Z,-1.87
2022-12-08T22:48:55.270Z,-1.90
2022-12-08T22:51:38.174Z,-1.94
2022-12-08T22:54:17.403Z,-1.96
2022-12-08T22:56:56.709Z,-1.99
2022-12-08T22:59:37.497Z,-2.03
2022-12-08T23:02:17.951Z,-2.05
2022-12-08T23:04:58.018Z,-2.06
2022-12-08T23:07:38.339Z,-2.08
2022-12-08T23:10:18.997Z,-2.10
2022-12-08T23:13:03.567Z,-2.15
2022-12-08T23:15:43.386Z,-2.17
2022-12-08T23:18:23.167Z,-2.21
2022-12-08T23:21:06.091Z,-2.25
2022-12-08T23:23:46.178Z,-2.29
2022-12-08T23:26:27.586Z,-2.31
2022-12-08T23:29:07.211Z,-2.36
2022-12-08T23:31:48.209Z,-2.38
2022-12-08T23:34:28.661Z,-2.42
2022-12-08T23:37:07.162Z,-2.46
2022-12-08T23:39:46.449Z,-2.48
2022-12-08T23:42:29.567Z,-2.49
2022-12-08T23:45:12.633Z,-2.55
2022-12-08T23:47:55.651Z,-2.58
2022-12-08T23:50:35.273Z,-2.60
2022-12-08T23:53:15.124Z,-2.63
2022-12-08T23:56:01.306Z,-2.65
2022-12-08T23:58:40.623Z,-2.70
